KMIV

Millville Municipal Airport

Millville, New Jersey, USA
KMIV 221724Z 2218/2318 14012G18KT P6SM VCSH SCT025 BKN035 TEMPO 2218/2222 6SM -SHRA BKN025 FM230000 13010KT P6SM -SHRA OVC025 FM230800 13011KT 5SM BR OVC015 FM231000 14009KT 5SM BR OVC009 FM231400 15013G18KT 6SM -SHRA OVC015
Issued Valid From Valid To
Jul-22 @ 17:24 UTC
(3 hours ago)
Jul-22 @ 18:00 UTC
(2 hours ago)
Jul-23 @ 18:00 UTC
(in 22 hours)
Jul-22 @ 18:00 to Jul-23 @ 00:00
KMIV 221724Z 2218/2318 14012G18KT P6SM VCSH SCT025 BKN035
Wind Visibility Clouds
140° at 12 knots
 Gusting to 18 knots
Greater than 6 miles
  • Scattered at 2,500' AGL
  • Broken at 3,500' AGL
Temporary Jul-22 @ 18:00 to Jul-22 @ 22:00
TEMPO 2218/2222 6SM -SHRA BKN025
Visibility Clouds Conditions
6 miles
  • Broken at 2,500' AGL
  • Light Rain
From Jul-23 @ 00:00 to Jul-23 @ 08:00
FM230000 13010KT P6SM -SHRA OVC025
Wind Visibility Clouds Conditions
130° at 10 knots Greater than 6 miles
  • Overcast at 2,500' AGL
  • Light Rain
From Jul-23 @ 08:00 to Jul-23 @ 10:00
FM230800 13011KT 5SM BR OVC015
Wind Visibility Clouds Conditions
130° at 11 knots 5 miles
  • Overcast at 1,500' AGL
  • Mist
From Jul-23 @ 10:00 to Jul-23 @ 14:00
FM231000 14009KT 5SM BR OVC009
Wind Visibility Clouds Conditions
140° at 9 knots 5 miles
  • Overcast at 900' AGL
  • Mist
From Jul-23 @ 14:00 to Jul-23 @ 18:00
FM231400 15013G18KT 6SM -SHRA OVC015
Wind Visibility Clouds Conditions
150° at 13 knots
 Gusting to 18 knots
6 miles
  • Overcast at 1,500' AGL
  • Light Rain
KMIV 221724Z 2218/2318 14012G18KT P6SM VCSH SCT025 BKN035 TEMPO 2218/2222 6SM -SHRA BKN025 FM230000 13010KT P6SM -SHRA OVC025 FM230800 13011KT 5SM BR OVC015 FM231000 14009KT 5SM BR OVC009 FM231400 15013G18KT 6SM -SHRA OVC015
Issued Jul-22 @ 17:24 UTC
(3 hours ago)
Valid From Jul-22 @ 18:00 UTC
(2 hours ago)
Valid To Jul-23 @ 18:00 UTC
(in 22 hours)
Jul-22 @ 18:00 - Jul-23 @ 00:00
Wind Visibility
140° at 12 knots
 Gusting to 18 knots
Greater than 6 miles
Clouds
  • Scattered at 2,500' AGL
  • Broken at 3,500' AGL
Temporary Jul-22 @ 18:00 - Jul-22 @ 22:00
Clouds
  • Broken at 2,500' AGL
Conditions
  • Light Rain
From Jul-23 @ 00:00 - Jul-23 @ 08:00
Wind Visibility
130° at 10 knots Greater than 6 miles
Clouds
  • Overcast at 2,500' AGL
Conditions
  • Light Rain
From Jul-23 @ 08:00 - Jul-23 @ 10:00
Wind Visibility
130° at 11 knots 5 miles
Clouds
  • Overcast at 1,500' AGL
Conditions
  • Mist
From Jul-23 @ 10:00 - Jul-23 @ 14:00
Wind Visibility
140° at 9 knots 5 miles
Clouds
  • Overcast at 900' AGL
Conditions
  • Mist
From Jul-23 @ 14:00 - Jul-23 @ 18:00
Wind Visibility
150° at 13 knots
 Gusting to 18 knots
6 miles
Clouds
  • Overcast at 1,500' AGL
Conditions
  • Light Rain